Time;durP1;ratioP1;P1;durP2;ratioP2;P2;SDS_P1;SDS_P2;PMS_P1;PMS_P2;Temp;Humidity;BMP_temperature;BMP_pressure;BME280_temperature;BME280_humidity;BME280_pressure;Samples;Min_cycle;Max_cycle;Signal;HPM_P1;HPM_P2
2023/12/27 00:02:03;;;;;;;25.83;9.18;;;8.30;99.90;;;;;;5036058;28;20061;-74
2023/12/27 00:04:28;;;;;;;20.70;8.65;;;8.40;99.90;;;;;;5037452;28;20030;-74
2023/12/27 00:06:57;;;;;;;20.55;7.90;;;8.40;99.90;;;;;;5032213;28;20493;-75
2023/12/27 00:09:23;;;;;;;24.08;8.05;;;8.40;99.90;;;;;;5035146;28;20168;-74
2023/12/27 00:11:49;;;;;;;14.25;7.88;;;8.40;99.90;;;;;;5032066;28;20075;-74
2023/12/27 00:14:15;;;;;;;16.58;7.95;;;8.40;99.90;;;;;;5035727;28;20021;-75
2023/12/27 00:16:40;;;;;;;19.33;8.13;;;8.30;99.90;;;;;;5038147;28;20056;-74
2023/12/27 00:19:06;;;;;;;20.13;8.43;;;8.30;99.90;;;;;;5038709;28;20029;-75
2023/12/27 00:21:33;;;;;;;21.02;8.15;;;8.20;99.90;;;;;;5036352;28;20501;-75
2023/12/27 00:23:58;;;;;;;22.73;8.63;;;8.20;99.90;;;;;;5037791;28;20021;-74
2023/12/27 00:26:24;;;;;;;18.30;7.90;;;8.20;99.90;;;;;;5033403;28;20099;-74
2023/12/27 00:28:50;;;;;;;16.33;7.43;;;8.20;99.90;;;;;;5034780;28;20025;-75
2023/12/27 00:31:15;;;;;;;16.52;7.05;;;8.20;99.90;;;;;;5031819;28;20021;-74
2023/12/27 00:33:41;;;;;;;22.23;8.98;;;8.10;99.90;;;;;;5036368;28;20033;-74
2023/12/27 00:36:08;;;;;;;24.17;9.13;;;8.10;99.90;;;;;;5035725;28;20092;-75
2023/12/27 00:38:37;;;;;;;22.25;8.40;;;8.00;99.90;;;;;;5035079;28;20051;-74
2023/12/27 00:41:04;;;;;;;17.17;7.38;;;8.00;99.90;;;;;;5035266;28;20061;-74
2023/12/27 00:43:29;;;;;;;21.08;8.48;;;8.00;99.90;;;;;;5035238;28;20030;-75
2023/12/27 00:45:55;;;;;;;21.05;8.23;;;8.00;99.90;;;;;;5034078;28;20459;-74
2023/12/27 00:48:21;;;;;;;23.67;9.15;;;8.00;99.90;;;;;;5029476;28;20033;-74
2023/12/27 00:50:46;;;;;;;18.75;8.18;;;8.00;99.90;;;;;;5036028;28;20029;-75
2023/12/27 00:53:12;;;;;;;20.13;7.38;;;8.00;99.90;;;;;;5033525;28;20064;-74
2023/12/27 00:55:38;;;;;;;24.70;8.85;;;8.00;99.90;;;;;;5033912;28;20026;-75
2023/12/27 00:58:04;;;;;;;22.35;8.30;;;8.00;99.90;;;;;;5030360;28;20025;-74
2023/12/27 01:00:30;;;;;;;22.30;8.20;;;7.90;99.90;;;;;;5034084;28;20130;-76
2023/12/27 01:02:56;;;;;;;20.98;7.45;;;7.80;99.90;;;;;;5033448;28;20033;-75
2023/12/27 01:05:21;;;;;;;24.70;7.80;;;7.80;99.90;;;;;;5033508;28;20677;-75
2023/12/27 01:07:47;;;;;;;22.63;7.57;;;7.80;99.90;;;;;;5034236;28;20032;-74
2023/12/27 01:10:14;;;;;;;23.80;8.40;;;7.80;99.90;;;;;;5038524;28;20029;-74
2023/12/27 01:12:40;;;;;;;18.83;8.75;;;7.70;99.90;;;;;;5034956;28;20028;-74
2023/12/27 01:15:06;;;;;;;17.88;9.02;;;7.70;99.90;;;;;;5038540;28;20021;-75
2023/12/27 01:17:31;;;;;;;28.25;9.52;;;7.70;99.90;;;;;;5030787;28;20482;-75
2023/12/27 01:19:57;;;;;;;17.52;9.25;;;7.70;99.90;;;;;;5034266;28;20139;-74
2023/12/27 01:22:23;;;;;;;20.00;8.13;;;7.60;99.90;;;;;;5035966;28;20038;-74
2023/12/27 01:24:48;;;;;;;23.15;9.23;;;7.50;99.90;;;;;;5034689;28;20036;-74
2023/12/27 01:27:14;;;;;;;20.63;8.85;;;7.50;99.90;;;;;;5029277;28;20033;-74
2023/12/27 01:29:40;;;;;;;18.83;8.25;;;7.50;99.90;;;;;;5033770;28;20107;-74
2023/12/27 01:32:05;;;;;;;22.95;8.00;;;7.60;99.90;;;;;;5030559;28;20021;-74
2023/12/27 01:34:31;;;;;;;16.38;8.57;;;7.50;99.90;;;;;;5032550;28;20022;-75
2023/12/27 01:36:57;;;;;;;23.30;8.73;;;7.50;99.90;;;;;;5035287;28;20028;-74
2023/12/27 01:39:22;;;;;;;23.60;9.85;;;7.50;99.90;;;;;;5032973;28;20497;-74
2023/12/27 01:41:48;;;;;;;22.75;9.73;;;7.50;99.90;;;;;;5033707;28;23003;-74
2023/12/27 01:44:14;;;;;;;21.38;8.07;;;7.40;99.90;;;;;;5033622;28;20145;-74
2023/12/27 01:46:39;;;;;;;21.02;9.80;;;7.40;99.90;;;;;;5030744;28;20221;-74
2023/12/27 01:49:05;;;;;;;16.55;9.30;;;7.40;99.90;;;;;;5033424;28;20385;-74
2023/12/27 01:51:31;;;;;;;27.60;10.18;;;7.40;99.90;;;;;;5028735;28;20040;-74
2023/12/27 01:54:02;;;;;;;29.65;9.57;;;7.40;99.90;;;;;;5033274;28;20022;-74
2023/12/27 01:56:28;;;;;;;23.33;10.18;;;7.50;99.90;;;;;;5031833;28;20024;-74
2023/12/27 01:58:54;;;;;;;29.55;10.10;;;7.50;99.90;;;;;;5040004;28;20045;-75
2023/12/27 02:01:20;;;;;;;23.25;9.70;;;7.50;99.90;;;;;;5034208;28;20104;-74
2023/12/27 02:03:45;;;;;;;22.30;10.18;;;7.50;99.90;;;;;;5030303;28;20033;-75
2023/12/27 02:06:11;;;;;;;34.40;10.75;;;7.40;99.90;;;;;;5028404;28;20022;-75
2023/12/27 02:08:38;;;;;;;25.20;10.98;;;7.50;99.90;;;;;;5035807;28;20013;-74
2023/12/27 02:11:03;;;;;;;21.88;10.85;;;7.40;99.90;;;;;;5036028;28;20449;-75
2023/12/27 02:13:29;;;;;;;27.17;11.35;;;7.50;99.90;;;;;;5033243;28;20052;-74
2023/12/27 02:15:55;;;;;;;28.70;10.48;;;7.50;99.90;;;;;;5037789;28;20036;-75
2023/12/27 02:18:21;;;;;;;26.35;10.73;;;7.50;99.90;;;;;;5026090;28;20022;-75
2023/12/27 02:20:47;;;;;;;30.73;12.52;;;7.50;99.90;;;;;;5032304;28;20482;-74
2023/12/27 02:23:17;;;;;;;29.83;11.45;;;7.60;99.90;;;;;;5032942;28;20049;-74
2023/12/27 02:25:44;;;;;;;31.60;11.50;;;7.50;99.90;;;;;;5036013;28;20025;-74
2023/12/27 02:28:10;;;;;;;25.80;11.57;;;7.50;99.90;;;;;;5031584;28;20100;-75
2023/12/27 02:30:36;;;;;;;32.70;12.25;;;7.50;99.90;;;;;;5032613;28;20097;-75
2023/12/27 02:33:02;;;;;;;26.80;10.00;;;7.50;99.90;;;;;;5031050;28;20021;-73
2023/12/27 02:35:27;;;;;;;31.90;10.70;;;7.40;99.90;;;;;;5034647;28;20029;-75
2023/12/27 02:37:54;;;;;;;31.15;10.80;;;7.40;99.90;;;;;;5033533;28;20564;-75
2023/12/27 02:40:20;;;;;;;23.75;9.43;;;7.50;99.90;;;;;;5031683;28;20146;-74
2023/12/27 02:42:46;;;;;;;36.55;11.23;;;7.40;99.90;;;;;;5034190;28;20044;-74
2023/12/27 02:45:12;;;;;;;32.85;11.57;;;7.50;99.90;;;;;;5032494;28;20021;-74
2023/12/27 02:47:38;;;;;;;30.85;11.10;;;7.50;99.90;;;;;;5031964;28;20577;-75
2023/12/27 02:50:04;;;;;;;26.88;9.70;;;7.40;99.90;;;;;;5033959;28;20421;-74
2023/12/27 02:52:29;;;;;;;36.63;11.57;;;7.50;99.90;;;;;;5032504;28;20100;-74
2023/12/27 02:54:55;;;;;;;30.38;11.43;;;7.50;99.90;;;;;;5032444;28;20112;-74
2023/12/27 02:57:21;;;;;;;23.50;10.98;;;7.40;99.90;;;;;;5030836;28;20091;-75
2023/12/27 02:59:47;;;;;;;31.63;10.90;;;7.40;99.90;;;;;;5032732;28;20021;-75
2023/12/27 03:02:13;;;;;;;35.15;10.95;;;7.40;99.90;;;;;;5029143;28;20036;-74
2023/12/27 03:04:38;;;;;;;29.77;11.27;;;7.40;99.90;;;;;;5032078;28;20453;-75
2023/12/27 03:07:04;;;;;;;24.80;10.13;;;7.40;99.90;;;;;;5032156;28;20036;-73
2023/12/27 03:09:30;;;;;;;23.55;10.38;;;7.40;99.90;;;;;;5030455;28;20037;-75
2023/12/27 03:11:56;;;;;;;41.58;11.77;;;7.40;99.90;;;;;;5035278;28;20028;-75
2023/12/27 03:14:22;;;;;;;28.60;11.18;;;7.40;99.90;;;;;;5029152;28;20018;-75
2023/12/27 03:16:48;;;;;;;43.28;11.38;;;7.50;99.90;;;;;;5032431;28;20048;-75
2023/12/27 03:19:13;;;;;;;29.67;10.30;;;7.40;99.90;;;;;;5035316;28;20045;-75
2023/12/27 03:21:39;;;;;;;25.70;10.27;;;7.50;99.90;;;;;;5036015;28;20036;-75
2023/12/27 03:24:05;;;;;;;28.98;11.60;;;7.50;99.90;;;;;;5036544;28;20041;-75
2023/12/27 03:26:31;;;;;;;33.67;12.68;;;7.50;99.90;;;;;;5039653;28;20033;-75
2023/12/27 03:28:57;;;;;;;26.90;12.05;;;7.60;99.90;;;;;;5037859;28;20482;-75
2023/12/27 03:31:28;;;;;;;30.77;11.57;;;7.60;99.90;;;;;;5034670;28;20025;-74
2023/12/27 03:33:55;;;;;;;42.42;12.95;;;7.50;99.90;;;;;;5033736;28;20029;-74
2023/12/27 03:36:21;;;;;;;29.75;12.48;;;7.50;99.90;;;;;;5033949;28;20091;-74
2023/12/27 03:38:47;;;;;;;32.17;12.07;;;7.50;99.90;;;;;;5036256;28;20558;-74
2023/12/27 03:41:12;;;;;;;34.17;11.85;;;7.40;99.90;;;;;;5037264;28;20048;-75
2023/12/27 03:43:38;;;;;;;35.17;13.43;;;7.50;99.90;;;;;;5035646;28;20490;-74
2023/12/27 03:46:04;;;;;;;37.88;13.23;;;7.40;99.90;;;;;;5037674;28;20025;-75
2023/12/27 03:48:29;;;;;;;38.42;13.35;;;7.50;99.90;;;;;;5036067;28;20128;-74
2023/12/27 03:50:55;;;;;;;35.08;13.65;;;7.50;99.90;;;;;;5030438;28;20044;-74
2023/12/27 03:53:20;;;;;;;35.40;13.60;;;7.40;99.90;;;;;;5034267;28;20025;-74
2023/12/27 03:55:46;;;;;;;37.00;13.38;;;7.40;99.90;;;;;;5033322;28;20021;-74
2023/12/27 03:58:13;;;;;;;36.25;13.82;;;7.50;99.90;;;;;;5032473;28;20022;-77
2023/12/27 04:00:39;;;;;;;33.53;13.68;;;7.50;99.90;;;;;;5038231;28;20033;-75
2023/12/27 04:03:05;;;;;;;39.95;13.60;;;7.50;99.90;;;;;;5036038;28;20033;-74
2023/12/27 04:05:31;;;;;;;33.40;14.25;;;7.40;99.90;;;;;;5036333;28;20033;-74
2023/12/27 04:07:56;;;;;;;36.35;14.57;;;7.40;99.90;;;;;;5039076;28;20583;-74
2023/12/27 04:10:25;;;;;;;33.85;14.13;;;7.40;99.90;;;;;;5037339;28;20179;-74
2023/12/27 04:12:51;;;;;;;30.40;13.50;;;7.40;99.90;;;;;;5037606;28;20049;-74
2023/12/27 04:15:17;;;;;;;38.13;13.80;;;7.40;99.90;;;;;;5036518;28;20579;-74
2023/12/27 04:17:42;;;;;;;36.65;12.93;;;7.40;99.90;;;;;;5036935;28;20029;-75
2023/12/27 04:20:09;;;;;;;36.90;13.13;;;7.40;99.90;;;;;;5038493;28;20060;-74
2023/12/27 04:22:34;;;;;;;29.27;12.70;;;7.50;99.90;;;;;;5036191;28;20466;-74
2023/12/27 04:25:02;;;;;;;27.60;12.50;;;7.40;99.90;;;;;;5033870;28;20033;-74
2023/12/27 04:27:28;;;;;;;35.92;12.68;;;7.50;99.90;;;;;;5039845;28;20010;-75
2023/12/27 04:29:54;;;;;;;35.65;13.32;;;7.50;99.90;;;;;;5038003;28;20489;-74
2023/12/27 04:32:20;;;;;;;25.95;11.25;;;7.50;99.90;;;;;;5037942;28;20028;-75
2023/12/27 04:34:46;;;;;;;34.08;12.65;;;7.50;99.90;;;;;;5036685;28;20013;-74
2023/12/27 04:37:11;;;;;;;32.10;11.60;;;7.60;99.90;;;;;;5044188;28;20552;-75
2023/12/27 04:39:37;;;;;;;27.55;10.75;;;7.60;99.90;;;;;;5032980;28;20108;-75
2023/12/27 04:42:03;;;;;;;31.13;12.00;;;7.60;99.90;;;;;;5038521;28;20021;-75
2023/12/27 04:44:29;;;;;;;35.70;12.15;;;7.70;99.90;;;;;;5036063;28;20063;-76
2023/12/27 04:46:55;;;;;;;27.10;11.25;;;7.70;99.90;;;;;;5037803;28;20022;-75
2023/12/27 04:49:21;;;;;;;32.35;12.23;;;7.70;99.90;;;;;;5037827;28;20042;-75
2023/12/27 04:51:46;;;;;;;35.28;11.95;;;7.70;99.90;;;;;;5034709;28;20029;-75
2023/12/27 04:54:12;;;;;;;31.77;10.50;;;7.70;99.90;;;;;;5032582;28;20025;-75
2023/12/27 04:56:38;;;;;;;38.17;11.52;;;7.70;99.90;;;;;;5035761;28;20513;-75
2023/12/27 04:59:03;;;;;;;28.75;10.23;;;7.70;99.90;;;;;;5037502;28;20040;-76
2023/12/27 05:01:29;;;;;;;27.70;10.73;;;7.60;99.90;;;;;;5035559;28;20025;-77
2023/12/27 05:03:55;;;;;;;32.22;11.25;;;7.60;99.90;;;;;;5036125;28;20164;-76
2023/12/27 05:06:21;;;;;;;40.10;12.30;;;7.70;99.90;;;;;;5034003;28;20474;-76
2023/12/27 05:08:47;;;;;;;31.02;11.82;;;7.70;99.90;;;;;;5033516;28;20036;-75
2023/12/27 05:11:15;;;;;;;29.60;12.15;;;7.70;99.90;;;;;;5037021;28;20025;-75
2023/12/27 05:13:41;;;;;;;34.05;12.07;;;7.70;99.90;;;;;;5037499;28;20044;-77
2023/12/27 05:16:15;;;;;;;33.28;11.95;;;7.70;99.90;;;;;;5037951;28;20113;-77
2023/12/27 05:18:42;;;;;;;31.92;11.27;;;7.80;99.90;;;;;;5036988;28;20080;-77
2023/12/27 05:21:09;;;;;;;48.95;13.27;;;7.80;99.90;;;;;;5035914;28;20117;-78
2023/12/27 05:23:35;;;;;;;39.25;12.35;;;7.80;99.90;;;;;;5035377;28;20029;-77
2023/12/27 05:26:05;;;;;;;33.83;12.73;;;7.80;99.90;;;;;;5034525;28;20029;-77
2023/12/27 05:28:31;;;;;;;38.55;13.60;;;7.70;99.90;;;;;;5035383;28;20502;-77
2023/12/27 05:30:56;;;;;;;36.80;13.45;;;7.70;99.90;;;;;;5033354;28;20510;-76
2023/12/27 05:33:24;;;;;;;29.45;11.75;;;7.70;99.90;;;;;;5036419;28;20123;-76
2023/12/27 05:35:50;;;;;;;37.08;13.77;;;7.70;99.90;;;;;;5033374;28;20029;-77
2023/12/27 05:38:16;;;;;;;35.75;12.38;;;7.80;99.90;;;;;;5036884;28;20425;-75
2023/12/27 05:40:42;;;;;;;33.05;13.18;;;7.80;99.90;;;;;;5033967;28;20017;-76
2023/12/27 05:43:08;;;;;;;34.53;13.32;;;7.80;99.90;;;;;;5037101;28;20033;-77
2023/12/27 05:45:34;;;;;;;37.38;12.98;;;7.90;99.90;;;;;;5035429;28;20029;-76
2023/12/27 05:47:59;;;;;;;33.05;13.15;;;7.80;99.90;;;;;;5033680;28;20086;-77
2023/12/27 05:50:25;;;;;;;30.15;13.15;;;7.80;99.90;;;;;;5041526;28;20020;-79
2023/12/27 05:52:51;;;;;;;33.28;12.95;;;7.80;99.90;;;;;;5037857;28;20103;-77
2023/12/27 05:55:17;;;;;;;35.58;13.35;;;7.80;99.90;;;;;;5028529;28;20037;-77
2023/12/27 05:57:43;;;;;;;32.42;12.50;;;7.70;99.90;;;;;;5036298;28;20101;-76
2023/12/27 06:00:09;;;;;;;25.63;13.00;;;7.80;99.90;;;;;;5037147;28;20077;-78
2023/12/27 06:02:35;;;;;;;34.35;14.05;;;7.80;99.90;;;;;;5033953;28;20065;-79
2023/12/27 06:05:00;;;;;;;27.80;13.10;;;7.80;99.90;;;;;;5031636;28;20571;-75
2023/12/27 06:07:26;;;;;;;33.03;13.80;;;7.80;99.90;;;;;;5031251;28;20453;-75
2023/12/27 06:09:52;;;;;;;30.85;15.02;;;7.80;99.90;;;;;;5036989;28;20027;-76
2023/12/27 06:12:18;;;;;;;34.10;13.70;;;7.80;99.90;;;;;;5032291;28;20025;-76
2023/12/27 06:14:44;;;;;;;25.27;12.52;;;7.90;99.90;;;;;;5034150;28;20097;-77
2023/12/27 06:17:10;;;;;;;33.05;14.57;;;7.90;99.90;;;;;;5031617;28;20099;-76
2023/12/27 06:19:36;;;;;;;26.88;12.82;;;7.90;99.90;;;;;;5032675;28;20486;-76
2023/12/27 06:22:02;;;;;;;31.80;13.52;;;7.90;99.90;;;;;;5036021;28;20143;-75
2023/12/27 06:24:29;;;;;;;34.63;15.20;;;7.90;99.90;;;;;;5031499;28;20045;-76
2023/12/27 06:26:54;;;;;;;30.80;14.02;;;7.90;99.90;;;;;;5036018;28;20017;-75
2023/12/27 06:29:20;;;;;;;30.63;15.23;;;7.90;99.90;;;;;;5034676;28;20033;-75
2023/12/27 06:31:46;;;;;;;24.48;13.68;;;7.90;99.90;;;;;;5033246;28;20139;-75
2023/12/27 06:34:11;;;;;;;31.15;15.63;;;8.00;99.90;;;;;;5035554;28;20386;-75
2023/12/27 06:36:38;;;;;;;34.03;15.80;;;8.00;99.90;;;;;;5036365;28;20490;-76
2023/12/27 06:39:06;;;;;;;33.85;15.02;;;8.00;99.90;;;;;;5038197;28;20025;-75
2023/12/27 06:41:32;;;;;;;31.48;15.82;;;8.00;99.90;;;;;;5031883;28;20488;-75
2023/12/27 06:43:58;;;;;;;34.88;16.02;;;8.00;99.90;;;;;;5035295;28;20393;-75
2023/12/27 06:46:24;;;;;;;28.70;15.90;;;8.00;99.90;;;;;;5034085;28;20021;-76
2023/12/27 06:48:49;;;;;;;32.50;16.10;;;8.00;99.90;;;;;;5037653;28;20436;-76
2023/12/27 06:51:15;;;;;;;29.05;15.00;;;8.10;99.90;;;;;;5041435;28;20037;-77
2023/12/27 06:53:41;;;;;;;36.63;16.08;;;8.10;99.90;;;;;;5039359;28;20030;-75
2023/12/27 06:56:07;;;;;;;36.38;18.70;;;8.20;99.90;;;;;;5039412;28;20132;-75
2023/12/27 06:58:32;;;;;;;39.90;17.50;;;8.10;99.90;;;;;;5036352;28;20029;-75
2023/12/27 07:00:58;;;;;;;42.08;19.23;;;8.20;99.90;;;;;;5036434;28;20026;-78
2023/12/27 07:03:27;;;;;;;44.53;18.42;;;8.20;99.90;;;;;;5038902;28;20038;-74
2023/12/27 07:05:53;;;;;;;35.80;18.42;;;8.20;99.90;;;;;;5042345;28;20021;-84
2023/12/27 07:08:19;;;;;;;35.92;18.73;;;8.30;99.90;;;;;;5043962;28;20509;-74
2023/12/27 07:10:45;;;;;;;38.58;17.92;;;8.30;99.90;;;;;;5037607;28;20028;-74
2023/12/27 07:13:11;;;;;;;38.95;19.13;;;8.30;99.90;;;;;;5038645;28;20037;-75
2023/12/27 07:15:36;;;;;;;37.55;18.85;;;8.30;99.90;;;;;;5035823;28;20108;-75
2023/12/27 07:18:02;;;;;;;39.58;18.60;;;8.30;99.90;;;;;;5036183;28;20553;-74
2023/12/27 07:20:28;;;;;;;36.80;18.70;;;8.30;99.90;;;;;;5038551;28;20021;-75
2023/12/27 07:22:56;;;;;;;38.53;17.80;;;8.40;99.90;;;;;;5037642;28;20440;-74
2023/12/27 07:25:21;;;;;;;48.85;20.20;;;8.40;99.90;;;;;;5030815;28;20091;-75
2023/12/27 07:27:47;;;;;;;42.85;19.00;;;8.50;99.90;;;;;;5036916;28;20028;-75
2023/12/27 07:30:13;;;;;;;36.17;19.00;;;8.40;99.90;;;;;;5040991;28;20029;-77
2023/12/27 07:32:39;;;;;;;37.70;17.88;;;8.50;99.90;;;;;;5036299;28;20029;-75
2023/12/27 07:35:05;;;;;;;33.42;17.50;;;8.50;99.90;;;;;;5037968;28;20387;-75
2023/12/27 07:37:31;;;;;;;42.78;18.73;;;8.50;99.90;;;;;;5038041;28;20041;-75
2023/12/27 07:39:57;;;;;;;41.72;20.75;;;8.40;99.90;;;;;;5032054;28;20094;-75
2023/12/27 07:42:24;;;;;;;42.67;19.88;;;8.50;99.90;;;;;;5034960;28;20025;-75
2023/12/27 07:44:50;;;;;;;42.90;19.27;;;8.50;99.90;;;;;;5038956;28;20033;-75
2023/12/27 07:47:16;;;;;;;41.80;19.88;;;8.50;99.90;;;;;;5036123;28;20029;-74
2023/12/27 07:49:42;;;;;;;40.15;19.02;;;8.60;99.90;;;;;;5040736;28;20104;-75
2023/12/27 07:52:08;;;;;;;40.83;19.55;;;8.70;99.90;;;;;;5038154;28;20112;-74
2023/12/27 07:54:37;;;;;;;31.88;18.25;;;8.70;99.90;;;;;;5036567;28;20029;-74
2023/12/27 07:57:03;;;;;;;46.53;18.42;;;8.70;99.90;;;;;;5040776;28;20028;-75
2023/12/27 07:59:31;;;;;;;48.42;19.25;;;8.70;99.90;;;;;;5036768;28;20390;-76
2023/12/27 08:01:57;;;;;;;43.20;18.73;;;8.70;99.90;;;;;;5032099;28;20024;-76
2023/12/27 08:04:22;;;;;;;47.92;20.52;;;8.70;99.90;;;;;;5039195;28;20487;-76
2023/12/27 08:06:49;;;;;;;55.10;20.15;;;8.70;99.90;;;;;;5040000;28;20071;-75
2023/12/27 08:09:15;;;;;;;25.02;13.60;;;8.80;99.90;;;;;;5035705;28;20493;-76
2023/12/27 08:11:41;;;;;;;50.35;21.73;;;8.90;99.90;;;;;;5034730;28;20437;-78
2023/12/27 08:14:07;;;;;;;57.90;19.80;;;8.90;99.90;;;;;;5034742;28;20057;-76
2023/12/27 08:16:32;;;;;;;83.80;23.60;;;8.80;99.90;;;;;;5038508;28;20026;-77
2023/12/27 08:18:58;;;;;;;52.22;20.20;;;8.90;99.90;;;;;;5034189;28;20501;-77
2023/12/27 08:21:24;;;;;;;90.07;24.30;;;8.80;99.90;;;;;;5035935;28;20131;-76
2023/12/27 08:23:50;;;;;;;58.80;20.17;;;8.80;99.90;;;;;;5038376;28;20556;-76
2023/12/27 08:26:16;;;;;;;53.90;18.65;;;8.70;99.90;;;;;;5035498;28;20029;-76
2023/12/27 08:28:42;;;;;;;37.30;17.65;;;8.80;99.90;;;;;;5036623;28;20108;-76
2023/12/27 08:31:07;;;;;;;48.20;19.10;;;8.90;99.90;;;;;;5036630;28;20104;-77
2023/12/27 08:33:37;;;;;;;48.10;19.83;;;8.90;99.90;;;;;;5038682;28;20082;-76
2023/12/27 08:36:03;;;;;;;38.95;18.90;;;9.00;99.90;;;;;;5039160;28;20066;-75
2023/12/27 08:38:29;;;;;;;63.28;21.58;;;9.00;99.90;;;;;;5036233;28;20061;-76
2023/12/27 08:40:56;;;;;;;51.55;18.88;;;9.00;99.90;;;;;;5039750;28;20537;-75
2023/12/27 08:43:27;;;;;;;30.33;14.95;;;9.00;99.90;;;;;;5041712;28;20030;-76
2023/12/27 08:45:53;;;;;;;39.13;17.38;;;9.00;99.90;;;;;;5033140;28;20029;-77
2023/12/27 08:48:19;;;;;;;29.20;14.63;;;9.00;99.90;;;;;;5034640;28;20033;-76
2023/12/27 08:50:45;;;;;;;19.55;11.88;;;9.00;99.90;;;;;;5037333;28;20112;-77
2023/12/27 08:53:11;;;;;;;16.35;10.05;;;9.10;99.90;;;;;;5031282;28;20035;-76
2023/12/27 08:55:37;;;;;;;12.93;7.47;;;9.20;99.90;;;;;;5034152;28;20095;-75
2023/12/27 08:58:03;;;;;;;9.75;7.45;;;9.30;99.90;;;;;;5037564;28;20083;-77
2023/12/27 09:00:29;;;;;;;16.98;8.98;;;9.30;99.90;;;;;;5034971;28;20041;-77
2023/12/27 09:02:55;;;;;;;11.95;6.68;;;9.30;99.90;;;;;;5039075;28;20036;-76
2023/12/27 09:05:20;;;;;;;5.60;4.07;;;9.40;99.90;;;;;;5035722;28;20477;-76
2023/12/27 09:07:46;;;;;;;5.32;3.53;;;9.40;99.90;;;;;;5035545;28;20025;-77
2023/12/27 09:10:13;;;;;;;4.82;2.78;;;9.50;99.90;;;;;;5034503;28;20033;-76
2023/12/27 09:12:41;;;;;;;4.90;2.83;;;9.60;99.90;;;;;;5037282;28;20036;-76
2023/12/27 09:15:08;;;;;;;8.45;3.00;;;9.60;99.90;;;;;;5034944;28;20025;-75
2023/12/27 09:17:34;;;;;;;5.65;3.17;;;9.70;99.90;;;;;;5032369;28;20025;-77
2023/12/27 09:20:00;;;;;;;3.45;2.70;;;9.70;99.90;;;;;;5033972;28;20500;-76
2023/12/27 09:22:26;;;;;;;4.50;2.70;;;9.70;99.90;;;;;;5036221;28;20024;-76
2023/12/27 09:24:52;;;;;;;5.22;3.08;;;9.80;99.90;;;;;;5037140;28;20033;-76
2023/12/27 09:27:17;;;;;;;3.72;2.45;;;9.80;99.90;;;;;;5035484;28;20139;-76
2023/12/27 09:29:44;;;;;;;3.88;2.30;;;9.80;99.90;;;;;;5031956;28;20428;-77
2023/12/27 09:32:11;;;;;;;4.70;3.10;;;9.80;99.90;;;;;;5039857;28;20493;-77
2023/12/27 09:34:36;;;;;;;5.40;2.60;;;9.90;99.90;;;;;;5035383;28;20026;-75
2023/12/27 09:37:03;;;;;;;4.78;2.53;;;10.00;99.90;;;;;;5039486;28;20549;-75
2023/12/27 09:39:29;;;;;;;3.55;2.50;;;9.90;99.90;;;;;;5035407;28;20021;-76
2023/12/27 09:41:55;;;;;;;4.00;2.45;;;9.90;99.90;;;;;;5034766;28;20021;-75
2023/12/27 09:44:21;;;;;;;7.18;2.53;;;9.90;99.90;;;;;;5036658;28;20037;-75
2023/12/27 09:46:47;;;;;;;3.50;2.63;;;10.00;99.90;;;;;;5036719;28;20029;-75
2023/12/27 09:49:13;;;;;;;5.65;2.65;;;10.00;99.90;;;;;;5037098;28;20037;-75
2023/12/27 09:51:39;;;;;;;6.13;2.67;;;10.10;99.90;;;;;;5036494;28;20398;-76
2023/12/27 09:54:05;;;;;;;7.38;3.10;;;10.10;99.90;;;;;;5032789;28;20529;-76
2023/12/27 09:56:32;;;;;;;6.28;2.63;;;10.20;99.90;;;;;;5032379;28;20020;-76
2023/12/27 09:59:05;;;;;;;6.25;2.47;;;10.20;99.90;;;;;;5036955;28;20582;-76
2023/12/27 10:01:41;;;;;;;8.57;3.25;;;10.20;99.90;;;;;;5033226;28;20028;-77
2023/12/27 10:04:30;;;;;;;6.43;2.85;;;10.20;99.90;;;;;;5032216;28;20390;-77
2023/12/27 10:06:58;;;;;;;6.63;2.67;;;10.20;99.90;;;;;;5036045;28;20059;-75
2023/12/27 10:09:24;;;;;;;5.68;2.35;;;10.20;99.90;;;;;;5032158;28;20105;-75
2023/12/27 10:11:50;;;;;;;9.02;3.03;;;10.20;99.90;;;;;;5034977;28;20039;-74
2023/12/27 10:14:17;;;;;;;8.52;2.47;;;10.40;99.90;;;;;;5038839;28;20425;-75
2023/12/27 10:16:42;;;;;;;10.13;3.05;;;10.40;99.90;;;;;;5036202;28;20053;-77
2023/12/27 10:19:40;;;;;;;9.25;2.88;;;10.30;99.90;;;;;;5033250;28;20068;-77
2023/12/27 10:22:06;;;;;;;7.45;3.50;;;10.40;99.90;;;;;;5034697;28;20040;-78
2023/12/27 10:24:34;;;;;;;7.55;3.45;;;10.40;99.90;;;;;;5036424;28;20047;-77
2023/12/27 10:27:00;;;;;;;5.80;2.85;;;10.40;99.90;;;;;;5036391;28;20047;-77
2023/12/27 10:29:26;;;;;;;7.57;3.45;;;10.50;99.90;;;;;;5034729;28;20021;-77
2023/12/27 10:31:52;;;;;;;13.18;3.83;;;10.40;99.90;;;;;;5037767;28;20029;-77
2023/12/27 10:34:20;;;;;;;10.13;3.40;;;10.50;99.90;;;;;;5038202;28;20393;-77
2023/12/27 10:36:49;;;;;;;7.97;3.13;;;10.50;99.90;;;;;;5032659;28;20087;-76
2023/12/27 10:39:17;;;;;;;6.28;2.85;;;10.50;99.90;;;;;;5034857;28;20474;-76
2023/12/27 10:41:43;;;;;;;11.20;3.20;;;10.50;99.90;;;;;;5033983;28;20060;-77
2023/12/27 10:44:09;;;;;;;8.20;2.80;;;10.50;99.90;;;;;;5035274;28;20069;-77
2023/12/27 10:46:37;;;;;;;11.43;3.65;;;10.50;99.90;;;;;;5030502;28;20082;-77
2023/12/27 10:49:04;;;;;;;12.88;3.28;;;10.50;99.90;;;;;;5037853;28;20065;-77
2023/12/27 10:51:30;;;;;;;11.95;2.53;;;10.60;99.90;;;;;;5030156;28;20033;-78
2023/12/27 10:54:01;;;;;;;8.73;3.30;;;10.50;99.90;;;;;;5031235;28;20032;-77
2023/12/27 10:56:28;;;;;;;7.28;3.00;;;10.60;99.90;;;;;;5035928;28;20496;-75
2023/12/27 10:58:55;;;;;;;15.55;3.80;;;10.60;99.90;;;;;;5028823;28;20095;-77
2023/12/27 11:01:21;;;;;;;9.02;2.83;;;10.60;99.90;;;;;;5032466;28;20032;-77
2023/12/27 11:03:49;;;;;;;10.88;3.20;;;10.60;99.90;;;;;;5034818;28;20037;-77
2023/12/27 11:06:19;;;;;;;9.82;3.28;;;10.70;99.90;;;;;;5034723;28;20026;-75
2023/12/27 11:08:46;;;;;;;9.25;3.45;;;10.80;99.90;;;;;;5034851;28;20033;-75
2023/12/27 11:11:13;;;;;;;11.45;3.42;;;10.80;99.90;;;;;;5036448;28;20040;-76
2023/12/27 11:13:40;;;;;;;10.77;3.22;;;10.80;99.90;;;;;;5033699;28;20026;-75
2023/12/27 11:16:07;;;;;;;10.73;3.20;;;10.80;99.90;;;;;;5034954;28;20445;-76
2023/12/27 11:18:35;;;;;;;9.80;3.00;;;10.80;99.90;;;;;;5034871;28;20026;-77
2023/12/27 11:21:01;;;;;;;13.70;3.10;;;10.80;99.90;;;;;;5034263;28;20520;-78
2023/12/27 11:23:27;;;;;;;6.13;3.55;;;10.80;99.90;;;;;;5035544;28;20060;-78
2023/12/27 11:25:55;;;;;;;7.22;3.45;;;10.80;99.90;;;;;;5033991;28;20134;-79
2023/12/27 11:28:21;;;;;;;6.38;3.13;;;10.90;99.90;;;;;;5033967;28;20401;-78
2023/12/27 11:30:47;;;;;;;11.80;3.58;;;10.80;99.90;;;;;;5033426;28;20029;-78
2023/12/27 11:33:22;;;;;;;11.05;2.55;;;10.90;99.90;;;;;;5031771;28;20489;-78
2023/12/27 11:35:47;;;;;;;10.95;3.60;;;11.00;99.90;;;;;;5036097;28;20490;-78
2023/12/27 11:38:24;;;;;;;16.95;3.70;;;11.00;99.90;;;;;;5032566;28;20035;-77
2023/12/27 11:40:56;;;;;;;9.95;3.70;;;11.00;99.90;;;;;;5036682;28;20517;-79
2023/12/27 11:43:25;;;;;;;9.70;3.78;;;11.00;99.90;;;;;;5039359;28;20029;-78
2023/12/27 11:45:58;;;;;;;8.40;3.47;;;11.10;99.90;;;;;;5035858;28;20029;-76
2023/12/27 11:48:30;;;;;;;6.00;3.05;;;11.10;99.90;;;;;;5040595;28;20017;-78
2023/12/27 11:50:56;;;;;;;13.18;4.00;;;11.10;99.90;;;;;;5039237;28;20029;-79
2023/12/27 11:53:25;;;;;;;8.48;3.28;;;11.10;99.90;;;;;;5038431;28;20344;-78
2023/12/27 11:55:51;;;;;;;8.98;3.55;;;11.10;99.90;;;;;;5037476;28;20021;-77
2023/12/27 11:58:38;;;;;;;13.80;3.65;;;11.10;99.90;;;;;;5034559;28;20381;-78
2023/12/27 12:01:31;;;;;;;12.80;3.72;;;11.10;99.90;;;;;;5036951;28;20028;-78
2023/12/27 12:04:09;;;;;;;8.02;2.88;;;11.10;99.90;;;;;;5037493;28;20040;-78
2023/12/27 12:06:37;;;;;;;9.02;3.35;;;11.10;99.90;;;;;;5034062;28;20037;-78
2023/12/27 12:09:05;;;;;;;13.38;3.63;;;11.10;99.90;;;;;;5035543;28;20111;-77
2023/12/27 12:11:34;;;;;;;4.47;2.40;;;11.20;99.90;;;;;;5036481;28;20074;-78
2023/12/27 12:14:00;;;;;;;8.35;3.40;;;11.20;99.90;;;;;;5041085;28;20037;-77
2023/12/27 12:16:31;;;;;;;16.50;3.63;;;11.20;99.90;;;;;;5035264;28;20025;-76
2023/12/27 12:19:02;;;;;;;11.38;3.53;;;11.20;99.90;;;;;;5036846;28;20074;-77
2023/12/27 12:21:29;;;;;;;25.30;4.20;;;11.30;99.90;;;;;;5035574;28;20044;-77
2023/12/27 12:23:54;;;;;;;12.02;3.50;;;11.30;99.90;;;;;;5035715;28;20389;-78
2023/12/27 12:26:20;;;;;;;6.20;3.55;;;11.30;99.90;;;;;;5036059;28;20033;-77
2023/12/27 12:28:57;;;;;;;7.18;3.30;;;11.30;99.90;;;;;;5036315;28;20071;-77
2023/12/27 12:31:23;;;;;;;10.13;3.40;;;11.30;99.90;;;;;;5036002;28;20029;-77
2023/12/27 12:33:49;;;;;;;13.50;3.72;;;11.40;99.90;;;;;;5035619;28;20386;-77
2023/12/27 12:36:16;;;;;;;13.13;3.40;;;11.40;99.90;;;;;;5035144;28;20382;-77
2023/12/27 12:38:42;;;;;;;7.38;3.47;;;11.40;99.90;;;;;;5033445;28;20024;-77